Hlavní strana
METAR-TAF:

METAR-TAF

Letiště :

Morganton, Severní Karolína, Spojené státy americké

zeměpisná šířka: 35-49-17N, zeměpisná délka: 081-36-39W, výška: 387 m

Aktuální stav počasí

Zpráva byla vytvořena před 22 minutami, v 10:40 UTC
Bezvětří
Teplota 16°C
Vlhkost vzduchu 94%
Tlak 1022 hPa
Viditelnost: 6.4 km
Jasno
kouřmo

METAR: KMRN 241040Z AUTO 00000KT 4SM BR CLR 16/15 A3019 RMK AO2 T01550147

Čas: 07:02 (11:02 UTC)


TAF: chybějící

Stav a předpovědi počasí z více než 4 000 letišť (zprávy METAR a TAF).

Červené a žluté tečky na mapě představují dostupné meteorologické stanice.

Když kurzor umístíte na tečku, zobrazí se název stanice.

Pak kliknutím zobrazíte stav a předpověď počasí.

Chcete-li změnit mapu, kliknutím na zelené tlačítko se znaménkem +mapu přiblížíte, kliknutím na zelené tlačítko se znaménkem – mapu oddálíte a kliknutím na zelené šipky přejdete na sousední mapy.


METAR-TAF: